Main page
METAR-TAF:

METAR-TAF

Airports :

Litchfield Municipal Airport

Litchfield, Illinois, United States

latitude: 39-09-44N, longitude: 089-40-28W, elevation: 689 ft

Current weather observation

The report was made 22 minutes ago, at 21:55 UTC
Wind 5 mph from the East/Southeast
Temperature 57°F
Humidity 41%
Pressure 30.05 in. Hg
Visibility: 10 miles
Clear sky

METAR: K3LF 012155Z AUTO 12004KT 10SM CLR 14/01 A3005 RMK AO2 T01410011

Time: 17:17 (22:17 UTC)


TAF: missing

Weather observations and forecasts of more than 4000 airports (METAR and TAF reports).

The available stations are represented by yellow and red dots on the map.

Hover mouse over dot to see the name of the station.

Then click to see weather observations and forecasts.

To change the map : click on the green buttons with a black cross to zoom in, on the green button with a dash to zoom out, or on the green arrows for adjacent maps.


METAR-TAF: